Aérodrome :
LOGIN :

S'inscrire | Disclaimer

   EN    FR    IT 

 










Légende :    VFR   VFR Marginal   IFR   IFR Intensif   IFR Très Intensif
Visi : 
Plafond : 
>= 8 km
>= 3000ft
5 à 8 km
1000 à 3000 ft
1500m à 5 km
500 à 1000 ft
800 à 1500m
200 à 500 ft
< 800m
< 200 ft
Symboles :   Orages  Brouillard  Fortes neiges  Fortes précipitations  Vent > 20 kt
SIGMETs :   Divers  Orages  Givrage  Turbulence  Onde Orograph.  Cendres Volcan.






- Altitude de l'aérodrome : 202 ft
- Code IATA : LGW


EGKK - London Gatwick

DERNIER METAR :
  • 301750Z 22009KT 170V250 9999 FEW036 17/09 Q1012

METARs EXPIRÉS :
  • 301720Z 19011KT 9999 FEW032 17/09 Q1012
  • 301650Z 21011KT 170V240 9999 FEW032 SCT047 18/08 Q1012
  • 301620Z 20010KT 9999 SCT030 18/09 Q1012
  • 301550Z 21011KT 160V240 9999 FEW033 17/09 Q1012
  • 301520Z 20010KT 9999 SCT035 18/09 Q1012

TAF TAF EGKK
Valide du 30 à 18h jusqu'au 02 à 00h UTC


301654Z 3018/0124 20010KT 9999 SCT045
PROB30
TEMPO 3018/3020 8000 SHRA
PROB30
TEMPO 0109/0115 8000 SHRA



MET'MAP, la Météo Aéronautique d'un coup d'oeil ! - Copyright ORBIFLY Décembre 2007 - Disclaimer

ORBIFLY MET'MAP TEAM :

Programmation & Développement : Alexandra Zaïnal
Sur une idée originale de : Baudouin d'Aumeries
Soutien technique & logistique : Manuel Goepfert
Assistance : Marc-Olivier Méhu




SOURCES & CREDITS :

   NOAA